Time;durP1;ratioP1;P1;durP2;ratioP2;P2;SDS_P1;SDS_P2;PMS_P1;PMS_P2;Temp;Humidity;BMP_temperature;BMP_pressure;BME280_temperature;BME280_humidity;BME280_pressure;Samples;Min_cycle;Max_cycle;Signal;HPM_P1;HPM_P2
2023/08/21 00:01:19;;;;;;;;;;;25.10;55.40;;;;;;1551375;75;774;-55
2023/08/21 00:03:20;;;;;;;;;;;25.20;55.40;;;;;;1534906;75;1939;-57
2023/08/21 00:05:22;;;;;;;;;;;25.20;55.40;;;;;;1552728;75;731;-57
2023/08/21 00:07:24;;;;;;;;;;;25.20;55.50;;;;;;1554476;75;720;-55
2023/08/21 00:09:26;;;;;;;;;;;25.10;55.50;;;;;;1549177;74;1117;-54
2023/08/21 00:11:28;;;;;;;;;;;25.20;55.50;;;;;;1544820;75;741;-54
2023/08/21 00:13:30;;;;;;;;;;;25.10;55.50;;;;;;1521378;77;1333;-57
2023/08/21 00:15:32;;;;;;;;;;;25.10;55.50;;;;;;1545023;75;674;-54
2023/08/21 00:17:34;;;;;;;;;;;25.10;55.50;;;;;;1552897;75;791;-55
2023/08/21 00:19:35;;;;;;;;;;;25.10;55.50;;;;;;1541931;75;1160;-56
2023/08/21 00:21:37;;;;;;;;;;;25.10;55.50;;;;;;1549895;75;708;-56
2023/08/21 00:23:39;;;;;;;;;;;25.10;55.50;;;;;;1541937;75;700;-54
2023/08/21 00:25:42;;;;;;;;;;;25.10;55.60;;;;;;1541594;75;733;-54
2023/08/21 00:27:44;;;;;;;;;;;25.10;55.60;;;;;;1531536;75;1498;-55
2023/08/21 00:29:46;;;;;;;;;;;25.10;55.60;;;;;;1546204;75;1137;-56
2023/08/21 00:31:48;;;;;;;;;;;25.10;55.70;;;;;;1545788;75;653;-57
2023/08/21 00:33:50;;;;;;;;;;;25.10;55.60;;;;;;1538599;75;849;-55
2023/08/21 00:35:52;;;;;;;;;;;25.10;55.60;;;;;;1544347;75;881;-54
2023/08/21 00:37:54;;;;;;;;;;;25.10;55.60;;;;;;1543606;75;708;-57
2023/08/21 00:39:56;;;;;;;;;;;25.10;55.60;;;;;;1534684;75;1159;-55
2023/08/21 00:41:58;;;;;;;;;;;25.10;55.60;;;;;;1547830;75;1939;-57
2023/08/21 00:43:59;;;;;;;;;;;25.10;55.60;;;;;;1537779;75;682;-57
2023/08/21 00:46:02;;;;;;;;;;;25.10;55.70;;;;;;1548568;75;763;-54
2023/08/21 00:48:05;;;;;;;;;;;25.10;55.70;;;;;;1556679;75;733;-56
2023/08/21 00:50:07;;;;;;;;;;;25.10;55.70;;;;;;1537845;75;1118;-56
2023/08/21 00:52:09;;;;;;;;;;;25.10;55.70;;;;;;1551102;75;789;-57
2023/08/21 00:54:11;;;;;;;;;;;25.10;55.70;;;;;;1539663;75;773;-55
2023/08/21 00:56:12;;;;;;;;;;;25.10;55.70;;;;;;1539035;75;1415;-57
2023/08/21 00:58:14;;;;;;;;;;;25.00;55.70;;;;;;1545503;75;789;-57
2023/08/21 01:00:17;;;;;;;;;;;25.10;55.70;;;;;;1546471;75;1177;-55
2023/08/21 01:02:19;;;;;;;;;;;25.10;55.90;;;;;;1538768;75;1927;-56
2023/08/21 01:04:21;;;;;;;;;;;25.10;55.90;;;;;;1548924;75;777;-55
2023/08/21 01:06:23;;;;;;;;;;;25.00;55.90;;;;;;1546236;75;738;-54
2023/08/21 01:08:29;;;;;;;;;;;25.10;56.00;;;;;;1546284;75;682;-55
2023/08/21 01:10:35;;;;;;;;;;;25.10;56.10;;;;;;1549860;75;1599;-56
2023/08/21 01:12:38;;;;;;;;;;;25.10;56.20;;;;;;1548450;75;744;-54
2023/08/21 01:14:53;;;;;;;;;;;25.10;56.20;;;;;;1542032;75;670;-56
2023/08/21 01:16:56;;;;;;;;;;;25.00;56.30;;;;;;1547131;75;1041;-55
2023/08/21 01:18:59;;;;;;;;;;;25.00;56.40;;;;;;1539542;75;1147;-56
2023/08/21 01:21:03;;;;;;;;;;;25.10;56.40;;;;;;1547611;75;790;-57
2023/08/21 01:23:08;;;;;;;;;;;25.10;56.50;;;;;;1550406;75;1919;-57
2023/08/21 01:25:10;;;;;;;;;;;25.00;56.60;;;;;;1545937;75;1715;-54
2023/08/21 01:27:12;;;;;;;;;;;25.10;56.60;;;;;;1535862;75;766;-57
2023/08/21 01:29:14;;;;;;;;;;;25.00;56.70;;;;;;1541737;75;1106;-55
2023/08/21 01:31:16;;;;;;;;;;;25.00;56.70;;;;;;1553372;75;865;-55
2023/08/21 01:33:18;;;;;;;;;;;25.00;56.70;;;;;;1542322;75;804;-56
2023/08/21 01:35:20;;;;;;;;;;;25.00;56.60;;;;;;1546905;75;766;-56
2023/08/21 01:37:22;;;;;;;;;;;25.00;56.60;;;;;;1554533;75;791;-56
2023/08/21 01:39:24;;;;;;;;;;;25.00;56.60;;;;;;1538927;75;1471;-55
2023/08/21 01:41:26;;;;;;;;;;;25.10;56.60;;;;;;1541387;75;773;-57
2023/08/21 01:43:27;;;;;;;;;;;25.00;56.50;;;;;;1540602;75;1927;-55
2023/08/21 01:45:29;;;;;;;;;;;25.00;56.50;;;;;;1543488;75;707;-54
2023/08/21 01:47:31;;;;;;;;;;;25.00;56.50;;;;;;1536354;75;732;-54
2023/08/21 01:49:33;;;;;;;;;;;25.00;56.50;;;;;;1544057;75;1145;-56
2023/08/21 01:51:35;;;;;;;;;;;25.00;56.40;;;;;;1542064;75;734;-56
2023/08/21 01:53:37;;;;;;;;;;;25.00;56.40;;;;;;1547864;75;1582;-56
2023/08/21 01:55:39;;;;;;;;;;;25.00;56.40;;;;;;1545443;75;693;-56
2023/08/21 01:57:42;;;;;;;;;;;25.00;56.40;;;;;;1542572;75;666;-54
2023/08/21 01:59:44;;;;;;;;;;;25.10;56.30;;;;;;1551067;74;1096;-57
2023/08/21 02:01:46;;;;;;;;;;;25.10;56.30;;;;;;1533650;75;867;-57
2023/08/21 02:03:47;;;;;;;;;;;25.00;56.30;;;;;;1535660;75;1929;-57
2023/08/21 02:05:49;;;;;;;;;;;25.00;56.30;;;;;;1538187;75;1524;-55
2023/08/21 02:07:51;;;;;;;;;;;25.00;56.30;;;;;;1545295;75;751;-57
2023/08/21 02:09:53;;;;;;;;;;;25.00;56.30;;;;;;1536590;75;1202;-54
2023/08/21 02:11:55;;;;;;;;;;;25.00;56.30;;;;;;1529538;75;728;-55
2023/08/21 02:13:57;;;;;;;;;;;25.00;56.30;;;;;;1549190;75;788;-56
2023/08/21 02:15:59;;;;;;;;;;;25.00;56.30;;;;;;1558546;75;716;-56
2023/08/21 02:18:01;;;;;;;;;;;25.00;56.30;;;;;;1530588;76;763;-57
2023/08/21 02:20:02;;;;;;;;;;;25.00;56.20;;;;;;1526162;77;1537;-56
2023/08/21 02:22:04;;;;;;;;;;;25.00;56.20;;;;;;1525969;76;938;-55
2023/08/21 02:24:06;;;;;;;;;;;25.00;56.20;;;;;;1523878;76;1949;-55
2023/08/21 02:26:08;;;;;;;;;;;25.00;56.20;;;;;;1533381;76;723;-52
2023/08/21 02:28:10;;;;;;;;;;;25.00;56.20;;;;;;1527250;76;725;-56
2023/08/21 02:30:12;;;;;;;;;;;25.00;56.20;;;;;;1530895;76;1134;-56
2023/08/21 02:32:14;;;;;;;;;;;25.00;56.20;;;;;;1554312;75;749;-57
2023/08/21 02:34:16;;;;;;;;;;;25.00;56.20;;;;;;1544127;75;1579;-56
2023/08/21 02:36:18;;;;;;;;;;;25.00;56.10;;;;;;1552280;75;753;-56
2023/08/21 02:38:19;;;;;;;;;;;25.00;56.10;;;;;;1517957;76;610;-54
2023/08/21 02:40:21;;;;;;;;;;;24.90;56.10;;;;;;1544659;75;1143;-54
2023/08/21 02:42:23;;;;;;;;;;;25.00;56.10;;;;;;1529388;77;711;-57
2023/08/21 02:44:25;;;;;;;;;;;24.90;56.10;;;;;;1549037;75;1946;-56
2023/08/21 02:46:27;;;;;;;;;;;24.90;56.10;;;;;;1543099;75;735;-56
2023/08/21 02:48:29;;;;;;;;;;;25.00;56.00;;;;;;1546014;75;1325;-53
2023/08/21 02:50:31;;;;;;;;;;;25.00;56.00;;;;;;1530902;75;1066;-55
2023/08/21 02:52:33;;;;;;;;;;;24.90;56.10;;;;;;1540149;75;702;-55
2023/08/21 02:54:35;;;;;;;;;;;24.90;56.00;;;;;;1545878;75;700;-56
2023/08/21 02:56:37;;;;;;;;;;;24.90;56.00;;;;;;1540997;75;735;-54
2023/08/21 02:58:39;;;;;;;;;;;24.90;56.00;;;;;;1542781;75;773;-54
2023/08/21 03:00:40;;;;;;;;;;;24.90;56.00;;;;;;1539626;75;1113;-56
2023/08/21 03:02:42;;;;;;;;;;;24.90;56.00;;;;;;1547958;75;1928;-56
2023/08/21 03:04:44;;;;;;;;;;;24.90;55.90;;;;;;1542512;75;717;-56
2023/08/21 03:06:46;;;;;;;;;;;24.90;56.00;;;;;;1539069;75;713;-57
2023/08/21 03:08:48;;;;;;;;;;;24.90;56.00;;;;;;1533738;75;684;-56
2023/08/21 03:10:50;;;;;;;;;;;24.90;56.00;;;;;;1544296;75;915;-56
2023/08/21 03:12:52;;;;;;;;;;;24.90;56.10;;;;;;1538110;75;700;-56
2023/08/21 03:14:54;;;;;;;;;;;24.90;56.20;;;;;;1544515;75;742;-54
2023/08/21 03:16:56;;;;;;;;;;;24.90;56.20;;;;;;1552227;75;1566;-55
2023/08/21 03:18:58;;;;;;;;;;;24.90;56.30;;;;;;1545243;75;1102;-57
2023/08/21 03:21:00;;;;;;;;;;;24.90;56.30;;;;;;1545825;75;676;-56
2023/08/21 03:23:02;;;;;;;;;;;24.90;56.30;;;;;;1543038;75;1939;-56
2023/08/21 03:25:04;;;;;;;;;;;24.90;56.30;;;;;;1542274;75;753;-54
2023/08/21 03:27:06;;;;;;;;;;;24.90;56.30;;;;;;1553013;75;748;-56
2023/08/21 03:29:08;;;;;;;;;;;24.90;56.30;;;;;;1550725;75;1170;-56
2023/08/21 03:31:09;;;;;;;;;;;24.90;56.20;;;;;;1554868;75;1475;-56
2023/08/21 03:33:11;;;;;;;;;;;24.90;56.30;;;;;;1551611;75;713;-54
2023/08/21 03:35:13;;;;;;;;;;;24.90;56.30;;;;;;1543734;75;729;-56
2023/08/21 03:37:15;;;;;;;;;;;24.90;56.30;;;;;;1535724;75;701;-54
2023/08/21 03:39:17;;;;;;;;;;;24.90;56.30;;;;;;1543496;75;1167;-56
2023/08/21 03:41:19;;;;;;;;;;;24.90;56.30;;;;;;1533122;75;742;-54
2023/08/21 03:43:21;;;;;;;;;;;24.90;56.30;;;;;;1540460;75;1939;-55
2023/08/21 03:45:23;;;;;;;;;;;24.90;56.30;;;;;;1536513;75;1415;-55
2023/08/21 03:47:24;;;;;;;;;;;24.80;56.30;;;;;;1536127;75;698;-55
2023/08/21 03:49:26;;;;;;;;;;;24.90;56.30;;;;;;1541412;75;1237;-53
2023/08/21 03:51:28;;;;;;;;;;;24.80;56.20;;;;;;1553052;75;752;-56
2023/08/21 03:53:30;;;;;;;;;;;24.90;56.30;;;;;;1546374;75;767;-56
2023/08/21 03:55:32;;;;;;;;;;;24.80;56.20;;;;;;1546432;75;774;-56
2023/08/21 03:57:34;;;;;;;;;;;24.80;56.20;;;;;;1543993;75;768;-57
2023/08/21 03:59:36;;;;;;;;;;;24.80;56.10;;;;;;1555897;75;1332;-55
2023/08/21 04:01:38;;;;;;;;;;;24.90;56.30;;;;;;1546697;75;668;-56
2023/08/21 04:03:40;;;;;;;;;;;24.80;56.30;;;;;;1542087;75;1944;-56
2023/08/21 04:05:42;;;;;;;;;;;24.80;56.10;;;;;;1532661;76;660;-57
2023/08/21 04:07:44;;;;;;;;;;;24.80;56.10;;;;;;1541272;75;733;-54
2023/08/21 04:09:46;;;;;;;;;;;24.80;56.10;;;;;;1529069;75;1191;-57
2023/08/21 04:11:48;;;;;;;;;;;24.80;56.10;;;;;;1548382;75;757;-57
2023/08/21 04:13:50;;;;;;;;;;;24.80;56.10;;;;;;1542578;75;1495;-56
2023/08/21 04:15:53;;;;;;;;;;;24.80;56.10;;;;;;1542285;76;764;-55
2023/08/21 04:17:55;;;;;;;;;;;24.80;56.00;;;;;;1531237;75;725;-56
2023/08/21 04:19:57;;;;;;;;;;;24.80;56.00;;;;;;1546836;75;1153;-55
2023/08/21 04:21:59;;;;;;;;;;;24.80;56.00;;;;;;1513426;76;810;-57
2023/08/21 04:24:01;;;;;;;;;;;24.80;56.00;;;;;;1508612;78;1906;-55
2023/08/21 04:26:03;;;;;;;;;;;24.80;56.00;;;;;;1526639;76;753;-57
2023/08/21 04:28:07;;;;;;;;;;;24.80;56.00;;;;;;1521616;78;1549;-54
2023/08/21 04:30:09;;;;;;;;;;;24.80;56.00;;;;;;1532774;76;1150;-57
2023/08/21 04:32:12;;;;;;;;;;;24.80;56.00;;;;;;1538304;76;913;-57
2023/08/21 04:34:14;;;;;;;;;;;24.80;56.00;;;;;;1541441;76;619;-57
2023/08/21 04:36:16;;;;;;;;;;;24.80;56.00;;;;;;1538147;77;696;-57
2023/08/21 04:38:18;;;;;;;;;;;24.80;55.90;;;;;;1536052;76;712;-57
2023/08/21 04:40:21;;;;;;;;;;;24.80;55.90;;;;;;1535447;76;1080;-56
2023/08/21 04:42:23;;;;;;;;;;;24.80;56.00;;;;;;1539685;75;1672;-55
2023/08/21 04:44:25;;;;;;;;;;;24.80;56.00;;;;;;1545760;75;1948;-54
2023/08/21 04:46:26;;;;;;;;;;;24.80;56.00;;;;;;1541317;75;686;-57
2023/08/21 04:48:28;;;;;;;;;;;24.80;56.00;;;;;;1535830;75;689;-56
2023/08/21 04:50:30;;;;;;;;;;;24.80;56.00;;;;;;1550722;75;1134;-57
2023/08/21 04:52:32;;;;;;;;;;;24.70;56.00;;;;;;1542526;75;747;-54
2023/08/21 04:54:40;;;;;;;;;;;24.70;56.00;;;;;;1543353;75;1508;-54
2023/08/21 04:56:41;;;;;;;;;;;24.70;56.00;;;;;;1546702;75;684;-54
2023/08/21 04:58:43;;;;;;;;;;;24.80;56.00;;;;;;1547989;75;736;-57
2023/08/21 05:00:46;;;;;;;;;;;24.80;56.00;;;;;;1550608;75;1146;-57
2023/08/21 05:02:47;;;;;;;;;;;24.80;56.00;;;;;;1558716;75;758;-55
2023/08/21 05:04:49;;;;;;;;;;;24.70;56.00;;;;;;1543962;75;1935;-57
2023/08/21 05:06:51;;;;;;;;;;;24.80;56.00;;;;;;1532841;75;714;-57
2023/08/21 05:08:53;;;;;;;;;;;24.60;55.90;;;;;;1544781;75;1513;-56
2023/08/21 05:11:01;;;;;;;;;;;24.80;56.10;;;;;;1548709;75;664;-55
2023/08/21 05:13:04;;;;;;;;;;;24.80;56.10;;;;;;1544659;75;812;-53
2023/08/21 05:15:06;;;;;;;;;;;24.80;56.10;;;;;;1554765;75;705;-57
2023/08/21 05:17:08;;;;;;;;;;;24.80;56.20;;;;;;1549457;75;731;-57
2023/08/21 05:19:10;;;;;;;;;;;24.80;56.20;;;;;;1521561;75;1135;-57
2023/08/21 05:21:12;;;;;;;;;;;24.80;56.30;;;;;;1554187;75;796;-57
2023/08/21 05:23:14;;;;;;;;;;;24.80;56.30;;;;;;1542126;75;1290;-56
2023/08/21 05:25:16;;;;;;;;;;;24.80;56.30;;;;;;1543079;75;1930;-55
2023/08/21 05:27:18;;;;;;;;;;;24.80;56.30;;;;;;1538895;75;797;-54
2023/08/21 05:29:20;;;;;;;;;;;24.80;56.30;;;;;;1543975;75;1138;-57
2023/08/21 05:31:21;;;;;;;;;;;24.90;56.40;;;;;;1540691;75;771;-57
2023/08/21 05:33:23;;;;;;;;;;;24.90;56.40;;;;;;1546727;75;781;-57
2023/08/21 05:35:25;;;;;;;;;;;25.00;56.30;;;;;;1536952;75;703;-57
2023/08/21 05:37:27;;;;;;;;;;;25.00;56.00;;;;;;1546872;75;1570;-56
2023/08/21 05:39:29;;;;;;;;;;;25.10;55.90;;;;;;1547673;75;1137;-55
2023/08/21 05:41:31;;;;;;;;;;;25.10;55.90;;;;;;1540613;75;782;-56
2023/08/21 05:43:34;;;;;;;;;;;25.10;55.50;;;;;;1551372;75;718;-57
2023/08/21 05:45:36;;;;;;;;;;;25.20;55.40;;;;;;1549107;75;1890;-57
2023/08/21 05:47:38;;;;;;;;;;;25.20;55.20;;;;;;1537039;75;680;-55
2023/08/21 05:49:40;;;;;;;;;;;25.20;55.10;;;;;;1542641;75;1154;-55
2023/08/21 05:51:42;;;;;;;;;;;25.30;55.10;;;;;;1539779;75;1565;-54
2023/08/21 05:53:43;;;;;;;;;;;25.40;55.00;;;;;;1522542;78;782;-57
2023/08/21 05:55:45;;;;;;;;;;;25.40;54.90;;;;;;1544558;75;782;-57
2023/08/21 05:57:47;;;;;;;;;;;25.40;54.70;;;;;;1532294;76;714;-56
2023/08/21 05:59:49;;;;;;;;;;;25.50;54.60;;;;;;1513427;77;1134;-57
2023/08/21 06:01:51;;;;;;;;;;;25.50;54.50;;;;;;1549487;75;702;-57
2023/08/21 06:03:53;;;;;;;;;;;25.50;54.40;;;;;;1529903;75;1940;-56
2023/08/21 06:05:55;;;;;;;;;;;25.50;54.30;;;;;;1535603;75;1542;-54
2023/08/21 06:07:57;;;;;;;;;;;25.60;54.20;;;;;;1546871;75;622;-57
2023/08/21 06:09:58;;;;;;;;;;;25.70;54.20;;;;;;1538822;75;1201;-57
2023/08/21 06:12:04;;;;;;;;;;;25.60;54.10;;;;;;1541182;75;794;-57
2023/08/21 06:14:06;;;;;;;;;;;25.70;53.90;;;;;;1545629;75;832;-55
2023/08/21 06:16:08;;;;;;;;;;;25.70;53.90;;;;;;1544815;75;715;-54
2023/08/21 06:18:09;;;;;;;;;;;25.80;53.70;;;;;;1546685;75;745;-57
2023/08/21 06:20:13;;;;;;;;;;;25.80;53.60;;;;;;1541886;75;1696;-57
2023/08/21 06:22:15;;;;;;;;;;;25.90;53.50;;;;;;1534033;75;1468;-57
2023/08/21 06:24:17;;;;;;;;;;;25.80;53.40;;;;;;1549857;75;1903;-57
2023/08/21 06:26:19;;;;;;;;;;;25.90;53.40;;;;;;1541172;75;763;-57
2023/08/21 06:28:21;;;;;;;;;;;26.00;53.80;;;;;;1537758;75;785;-56
2023/08/21 06:30:22;;;;;;;;;;;25.90;53.10;;;;;;1552401;75;1123;-57
2023/08/21 06:32:24;;;;;;;;;;;26.00;53.70;;;;;;1547862;75;899;-57
2023/08/21 06:34:26;;;;;;;;;;;26.00;53.80;;;;;;1545668;75;1322;-55
2023/08/21 06:36:28;;;;;;;;;;;26.00;53.70;;;;;;1547054;75;723;-57
2023/08/21 06:38:30;;;;;;;;;;;26.10;53.80;;;;;;1541950;75;780;-56
2023/08/21 06:40:32;;;;;;;;;;;26.10;53.80;;;;;;1539915;75;1124;-55
2023/08/21 06:42:34;;;;;;;;;;;26.00;53.80;;;;;;1536916;75;686;-53
2023/08/21 06:44:36;;;;;;;;;;;26.10;53.70;;;;;;1540643;75;1935;-54
2023/08/21 06:46:38;;;;;;;;;;;26.20;53.80;;;;;;1551323;75;726;-58
2023/08/21 06:48:45;;;;;;;;;;;26.10;53.80;;;;;;1541477;75;1542;-55
2023/08/21 06:50:44;;;;;;;;;;;26.20;53.80;;;;;;1529339;75;1621;-57
2023/08/21 06:52:46;;;;;;;;;;;26.20;53.80;;;;;;1531961;75;781;-56
2023/08/21 06:54:47;;;;;;;;;;;26.20;53.80;;;;;;1550920;75;810;-55
2023/08/21 06:56:49;;;;;;;;;;;26.30;53.70;;;;;;1546998;75;783;-57
2023/08/21 06:58:52;;;;;;;;;;;26.20;53.60;;;;;;1512013;77;1138;-57
2023/08/21 07:00:56;;;;;;;;;;;26.20;53.60;;;;;;1552265;75;713;-53
2023/08/21 07:02:58;;;;;;;;;;;26.20;53.60;;;;;;1524591;76;1563;-57
2023/08/21 07:05:00;;;;;;;;;;;26.30;53.60;;;;;;1526384;77;1956;-56
2023/08/21 07:07:02;;;;;;;;;;;26.20;53.70;;;;;;1537624;76;648;-56
2023/08/21 07:09:04;;;;;;;;;;;26.20;53.70;;;;;;1542371;76;1185;-56
2023/08/21 07:11:07;;;;;;;;;;;26.20;53.70;;;;;;1526271;77;776;-54
2023/08/21 07:13:09;;;;;;;;;;;26.20;53.80;;;;;;1551169;75;733;-57
2023/08/21 07:15:11;;;;;;;;;;;26.20;53.80;;;;;;1515607;76;1532;-57
2023/08/21 07:17:13;;;;;;;;;;;26.10;54.00;;;;;;1519798;76;795;-56
2023/08/21 07:19:15;;;;;;;;;;;26.10;54.00;;;;;;1552087;75;1111;-55
2023/08/21 07:21:17;;;;;;;;;;;26.20;54.10;;;;;;1542511;75;989;-54
2023/08/21 07:23:19;;;;;;;;;;;26.10;54.20;;;;;;1548033;75;717;-55
2023/08/21 07:25:20;;;;;;;;;;;26.10;54.20;;;;;;1524960;77;1932;-55
2023/08/21 07:27:22;;;;;;;;;;;26.10;54.20;;;;;;1554674;75;797;-57
2023/08/21 07:29:24;;;;;;;;;;;26.00;54.20;;;;;;1535654;76;1581;-55
2023/08/21 07:31:26;;;;;;;;;;;26.00;54.30;;;;;;1514339;77;716;-55
2023/08/21 07:33:28;;;;;;;;;;;26.00;54.40;;;;;;1545271;75;786;-54
2023/08/21 07:35:30;;;;;;;;;;;26.00;54.40;;;;;;1565824;75;710;-55
2023/08/21 07:37:32;;;;;;;;;;;26.00;54.40;;;;;;1565828;75;779;-54
2023/08/21 07:39:34;;;;;;;;;;;26.00;54.60;;;;;;1547996;75;1160;-57
2023/08/21 07:41:35;;;;;;;;;;;26.00;54.60;;;;;;1529765;75;724;-56
2023/08/21 07:43:38;;;;;;;;;;;26.00;54.60;;;;;;1530534;76;1581;-56
2023/08/21 07:45:40;;;;;;;;;;;26.00;54.60;;;;;;1522484;76;1932;-56
2023/08/21 07:47:41;;;;;;;;;;;26.00;54.70;;;;;;1509547;78;787;-57
2023/08/21 07:49:43;;;;;;;;;;;26.00;54.60;;;;;;1521298;76;1146;-56
2023/08/21 07:51:46;;;;;;;;;;;25.90;54.20;;;;;;1523655;76;705;-54
2023/08/21 07:53:48;;;;;;;;;;;26.00;54.80;;;;;;1544682;75;730;-54
2023/08/21 07:55:50;;;;;;;;;;;26.00;54.80;;;;;;1516451;78;713;-56
2023/08/21 07:57:51;;;;;;;;;;;25.90;54.40;;;;;;1512693;77;1525;-55
2023/08/21 07:59:53;;;;;;;;;;;25.90;54.40;;;;;;1535659;75;1135;-56
2023/08/21 08:01:56;;;;;;;;;;;26.00;55.00;;;;;;1544129;75;703;-56
2023/08/21 08:03:57;;;;;;;;;;;26.00;55.00;;;;;;1549548;75;808;-57
2023/08/21 08:05:59;;;;;;;;;;;26.00;55.10;;;;;;1544559;75;1936;-57
2023/08/21 08:08:01;;;;;;;;;;;25.90;54.70;;;;;;1558925;75;764;-56
2023/08/21 08:10:03;;;;;;;;;;;26.00;55.30;;;;;;1544539;75;1175;-54
2023/08/21 08:12:05;;;;;;;;;;;25.90;54.80;;;;;;1540277;75;1583;-57
2023/08/21 08:14:07;;;;;;;;;;;25.90;54.60;;;;;;1545394;75;689;-57
2023/08/21 08:16:09;;;;;;;;;;;26.00;55.40;;;;;;1558233;75;668;-57
2023/08/21 08:18:11;;;;;;;;;;;26.00;55.50;;;;;;1534710;75;735;-54
2023/08/21 08:20:13;;;;;;;;;;;25.90;55.00;;;;;;1543463;75;1178;-56
2023/08/21 08:22:15;;;;;;;;;;;25.90;55.10;;;;;;1546707;75;798;-54
2023/08/21 08:24:17;;;;;;;;;;;25.90;55.20;;;;;;1541400;75;754;-57
2023/08/21 08:26:19;;;;;;;;;;;25.90;55.20;;;;;;1546669;75;1933;-56
2023/08/21 08:28:21;;;;;;;;;;;26.00;55.50;;;;;;1537283;75;790;-57
2023/08/21 08:30:24;;;;;;;;;;;25.90;55.10;;;;;;1543981;75;1145;-54
2023/08/21 08:32:26;;;;;;;;;;;25.90;55.30;;;;;;1551807;75;772;-57
2023/08/21 08:34:28;;;;;;;;;;;26.00;55.80;;;;;;1544534;75;773;-57
2023/08/21 08:36:30;;;;;;;;;;;26.00;56.00;;;;;;1543962;75;787;-57
2023/08/21 08:38:31;;;;;;;;;;;26.00;56.00;;;;;;1533192;75;795;-57
2023/08/21 08:40:34;;;;;;;;;;;25.90;55.40;;;;;;1545953;75;1488;-57
2023/08/21 08:42:38;;;;;;;;;;;25.90;55.20;;;;;;1552907;75;685;-57
2023/08/21 08:44:41;;;;;;;;;;;26.00;55.80;;;;;;1545810;75;776;-58
2023/08/21 08:46:42;;;;;;;;;;;25.90;55.20;;;;;;1543521;75;1903;-57
2023/08/21 08:48:44;;;;;;;;;;;26.00;55.70;;;;;;1534175;75;678;-57
2023/08/21 08:50:46;;;;;;;;;;;25.90;55.10;;;;;;1554986;75;1158;-57
2023/08/21 08:52:48;;;;;;;;;;;25.90;55.10;;;;;;1527956;76;717;-55
2023/08/21 08:54:50;;;;;;;;;;;25.90;55.00;;;;;;1542978;75;1539;-56
2023/08/21 08:56:52;;;;;;;;;;;25.90;55.00;;;;;;1535789;75;755;-54
2023/08/21 08:58:54;;;;;;;;;;;25.90;55.00;;;;;;1550172;75;1136;-57
2023/08/21 09:00:56;;;;;;;;;;;25.90;55.00;;;;;;1545062;75;753;-57
2023/08/21 09:02:57;;;;;;;;;;;25.90;54.90;;;;;;1539204;75;720;-56
2023/08/21 09:04:59;;;;;;;;;;;26.00;55.30;;;;;;1555711;75;1912;-58
2023/08/21 09:07:08;;;;;;;;;;;25.90;54.80;;;;;;1532772;75;759;-55
2023/08/21 09:09:12;;;;;;;;;;;25.90;54.70;;;;;;1544533;75;1661;-55
2023/08/21 09:11:14;;;;;;;;;;;25.90;54.70;;;;;;1549675;75;754;-57
2023/08/21 09:13:17;;;;;;;;;;;25.90;54.80;;;;;;1540952;76;704;-56
2023/08/21 09:15:19;;;;;;;;;;;25.90;54.80;;;;;;1548401;75;723;-56
2023/08/21 09:17:20;;;;;;;;;;;25.90;54.70;;;;;;1533047;75;816;-57
2023/08/21 09:19:24;;;;;;;;;;;25.90;54.80;;;;;;1545582;75;1154;-55
2023/08/21 09:21:27;;;;;;;;;;;25.90;54.70;;;;;;1548121;75;706;-54
2023/08/21 09:23:29;;;;;;;;;;;25.90;54.70;;;;;;1549961;75;1451;-56
2023/08/21 09:25:32;;;;;;;;;;;25.90;54.60;;;;;;1541024;75;1951;-57
2023/08/21 09:27:34;;;;;;;;;;;25.90;54.50;;;;;;1544868;75;961;-57
2023/08/21 09:29:38;;;;;;;;;;;25.90;54.50;;;;;;1544813;75;1164;-57
2023/08/21 09:31:40;;;;;;;;;;;25.90;54.40;;;;;;1539363;75;1669;-57
2023/08/21 09:33:42;;;;;;;;;;;25.90;54.40;;;;;;1539909;75;789;-55
2023/08/21 09:35:44;;;;;;;;;;;25.90;54.40;;;;;;1533512;75;734;-55
2023/08/21 09:37:47;;;;;;;;;;;25.90;54.40;;;;;;1544044;75;1018;-56
2023/08/21 09:39:49;;;;;;;;;;;25.90;54.40;;;;;;1533383;75;1374;-55
2023/08/21 09:41:58;;;;;;;;;;;25.90;54.40;;;;;;1536813;75;836;-57
2023/08/21 09:44:03;;;;;;;;;;;25.90;54.40;;;;;;1548338;75;662;-56
2023/08/21 09:46:05;;;;;;;;;;;25.90;54.40;;;;;;1561002;75;1928;-57
2023/08/21 09:48:07;;;;;;;;;;;25.90;54.50;;;;;;1538237;75;779;-56
2023/08/21 09:50:09;;;;;;;;;;;25.90;54.60;;;;;;1545603;75;1589;-57
2023/08/21 09:52:11;;;;;;;;;;;25.90;54.60;;;;;;1560722;75;585;-57
2023/08/21 09:54:14;;;;;;;;;;;25.90;54.70;;;;;;1539156;75;782;-57
2023/08/21 09:56:16;;;;;;;;;;;25.90;54.70;;;;;;1556025;75;722;-57
2023/08/21 09:58:17;;;;;;;;;;;25.90;54.70;;;;;;1560181;75;1389;-56
2023/08/21 10:00:20;;;;;;;;;;;25.90;54.70;;;;;;1544632;75;1150;-57
2023/08/21 10:02:22;;;;;;;;;;;25.90;54.70;;;;;;1542586;75;691;-57
2023/08/21 10:04:23;;;;;;;;;;;25.90;54.70;;;;;;1532312;75;1543;-56
2023/08/21 10:06:25;;;;;;;;;;;25.90;54.70;;;;;;1548938;75;1936;-54
2023/08/21 10:08:27;;;;;;;;;;;25.90;54.70;;;;;;1532115;75;741;-54
2023/08/21 10:10:33;;;;;;;;;;;25.90;54.80;;;;;;1544158;75;1154;-56
2023/08/21 10:12:35;;;;;;;;;;;25.90;54.80;;;;;;1550908;75;780;-57
2023/08/21 10:14:36;;;;;;;;;;;25.90;54.90;;;;;;1548261;75;807;-56
2023/08/21 10:16:38;;;;;;;;;;;25.90;54.80;;;;;;1546742;75;673;-55
2023/08/21 10:18:42;;;;;;;;;;;25.90;54.90;;;;;;1544870;75;1458;-55
2023/08/21 10:20:44;;;;;;;;;;;25.90;54.90;;;;;;1541954;75;1518;-55
2023/08/21 10:22:46;;;;;;;;;;;25.90;54.90;;;;;;1542701;75;790;-54
2023/08/21 10:24:48;;;;;;;;;;;25.90;54.90;;;;;;1540729;75;862;-57
2023/08/21 10:26:50;;;;;;;;;;;25.90;54.90;;;;;;1546416;75;1965;-57
2023/08/21 10:28:52;;;;;;;;;;;25.90;55.00;;;;;;1544315;75;1153;-57
2023/08/21 10:30:55;;;;;;;;;;;25.90;54.90;;;;;;1549510;75;790;-55
2023/08/21 10:33:00;;;;;;;;;;;25.90;54.90;;;;;;1543313;75;1543;-55
2023/08/21 10:35:01;;;;;;;;;;;26.00;55.40;;;;;;1533296;75;748;-54
2023/08/21 10:37:12;;;;;;;;;;;25.80;55.00;;;;;;1553325;75;753;-55
2023/08/21 10:39:26;;;;;;;;;;;25.90;55.00;;;;;;1538824;75;1124;-57
2023/08/21 10:41:28;;;;;;;;;;;25.90;55.00;;;;;;1536884;75;652;-57
2023/08/21 10:43:39;;;;;;;;;;;25.90;54.90;;;;;;1541845;75;741;-57
2023/08/21 10:45:43;;;;;;;;;;;25.90;54.90;;;;;;1544730;75;1984;-55
2023/08/21 10:47:47;;;;;;;;;;;25.90;54.90;;;;;;1547119;75;1580;-55
2023/08/21 10:49:49;;;;;;;;;;;25.90;54.90;;;;;;1544266;75;1972;-57
2023/08/21 10:51:51;;;;;;;;;;;25.90;54.90;;;;;;1550794;75;883;-57
2023/08/21 10:53:53;;;;;;;;;;;25.90;54.80;;;;;;1543826;75;718;-53
2023/08/21 10:55:55;;;;;;;;;;;25.90;54.90;;;;;;1548344;75;700;-57
2023/08/21 10:57:57;;;;;;;;;;;25.80;54.70;;;;;;1550606;75;735;-55
2023/08/21 11:00:00;;;;;;;;;;;25.90;54.70;;;;;;1549634;75;1151;-57
2023/08/21 11:02:03;;;;;;;;;;;25.90;54.70;;;;;;1552900;75;1883;-57
2023/08/21 11:04:05;;;;;;;;;;;25.90;54.80;;;;;;1546988;75;746;-57
2023/08/21 11:06:07;;;;;;;;;;;25.90;54.80;;;;;;1544009;75;1935;-57
2023/08/21 11:08:09;;;;;;;;;;;25.90;54.70;;;;;;1541793;75;904;-55
2023/08/21 11:10:16;;;;;;;;;;;25.80;54.70;;;;;;1546659;75;1147;-56
2023/08/21 11:12:19;;;;;;;;;;;25.90;54.20;;;;;;1535367;75;696;-57
2023/08/21 11:14:22;;;;;;;;;;;25.90;54.20;;;;;;1546610;75;1289;-54
2023/08/21 11:16:25;;;;;;;;;;;25.90;54.20;;;;;;1539461;75;2325;-57
2023/08/21 11:18:37;;;;;;;;;;;25.90;54.20;;;;;;1543015;75;804;-54
2023/08/21 11:20:39;;;;;;;;;;;25.90;54.20;;;;;;1540993;75;1096;-55
2023/08/21 11:22:41;;;;;;;;;;;25.80;54.20;;;;;;1549678;75;726;-54
2023/08/21 11:24:47;;;;;;;;;;;25.90;54.20;;;;;;1534884;75;727;-54
2023/08/21 11:26:48;;;;;;;;;;;25.90;54.20;;;;;;1535281;75;1935;-57
2023/08/21 11:28:50;;;;;;;;;;;25.80;54.00;;;;;;1540180;74;1513;-57
2023/08/21 11:30:52;;;;;;;;;;;25.80;54.10;;;;;;1547455;75;695;-57
2023/08/21 11:33:08;;;;;;;;;;;25.80;54.00;;;;;;1550146;75;614;-54
2023/08/21 11:35:09;;;;;;;;;;;25.80;54.00;;;;;;1548072;75;1754;-57
2023/08/21 11:37:11;;;;;;;;;;;25.80;54.10;;;;;;1548254;75;685;-58
2023/08/21 11:39:13;;;;;;;;;;;25.90;54.10;;;;;;1535794;75;1136;-58
2023/08/21 11:41:15;;;;;;;;;;;25.90;54.20;;;;;;1534831;75;741;-57
2023/08/21 11:43:17;;;;;;;;;;;25.80;54.10;;;;;;1537007;75;1307;-56
2023/08/21 11:45:22;;;;;;;;;;;25.90;54.10;;;;;;1540972;75;772;-54
2023/08/21 11:47:23;;;;;;;;;;;25.90;54.20;;;;;;1545060;75;1938;-55
2023/08/21 11:49:25;;;;;;;;;;;25.80;54.20;;;;;;1545936;75;1129;-54
2023/08/21 11:51:27;;;;;;;;;;;25.90;54.30;;;;;;1551836;75;762;-53
2023/08/21 11:53:33;;;;;;;;;;;25.90;54.20;;;;;;1548336;75;675;-56
2023/08/21 11:55:36;;;;;;;;;;;25.80;54.40;;;;;;1538380;75;723;-57
2023/08/21 11:57:50;;;;;;;;;;;25.80;54.40;;;;;;1554591;75;1291;-55
2023/08/21 11:59:53;;;;;;;;;;;25.80;54.40;;;;;;1550344;75;1150;-55
2023/08/21 12:01:55;;;;;;;;;;;25.80;54.50;;;;;;1539102;75;914;-57
2023/08/21 12:03:57;;;;;;;;;;;25.90;54.50;;;;;;1535811;75;691;-56
2023/08/21 12:06:00;;;;;;;;;;;25.80;54.50;;;;;;1548400;75;1931;-56
2023/08/21 12:08:02;;;;;;;;;;;25.90;54.60;;;;;;1543397;75;658;-55
2023/08/21 12:10:04;;;;;;;;;;;25.80;54.80;;;;;;1553665;75;1158;-56